Time;durP1;ratioP1;P1;durP2;ratioP2;P2;SDS_P1;SDS_P2;PMS_P1;PMS_P2;Temp;Humidity;BMP_temperature;BMP_pressure;BME280_temperature;BME280_humidity;BME280_pressure;Samples;Min_cycle;Max_cycle;Signal;HPM_P1;HPM_P2
2022/06/30 00:03:03;;;;;;;51.83;48.03;;;;;;;15.85;100.00;101136.02;2003807;71;33372;-74
2022/06/30 00:08:47;;;;;;;51.33;47.03;;;;;;;15.73;100.00;101144.70;1980482;72;33420;-73
2022/06/30 00:14:31;;;;;;;52.53;48.47;;;;;;;15.82;100.00;101148.42;2018890;71;32842;-73
2022/06/30 00:20:10;;;;;;;52.70;48.43;;;;;;;15.85;100.00;101147.79;2097741;68;32634;-73
2022/06/30 00:25:55;;;;;;;51.33;47.40;;;;;;;15.87;100.00;101146.92;2016949;71;32913;-73
2022/06/30 00:31:39;;;;;;;51.93;47.60;;;;;;;15.71;100.00;101145.00;2016288;71;33400;-73
2022/06/30 00:37:24;;;;;;;51.27;47.33;;;;;;;15.77;100.00;101142.36;2009459;71;32832;-73
2022/06/30 00:43:09;;;;;;;52.80;48.77;;;;;;;15.64;100.00;101120.80;2016622;71;32846;-73
2022/06/30 00:48:56;;;;;;;53.60;49.23;;;;;;;15.59;100.00;101105.50;2000590;71;32860;-75
2022/06/30 00:54:45;;;;;;;53.53;49.33;;;;;;;15.72;100.00;101093.45;2016882;70;30905;-74
2022/06/30 01:00:33;;;;;;;51.97;47.80;;;;;;;15.66;100.00;101092.49;2003497;70;33414;-75
2022/06/30 01:06:19;;;;;;;52.67;48.13;;;;;;;15.64;100.00;101089.99;2014000;71;32832;-73
2022/06/30 01:18:11;;;;;;;46.60;42.90;;;;;;;15.12;100.00;101077.89;2007453;71;32851;-73
2022/06/30 01:23:58;;;;;;;46.87;43.27;;;;;;;15.15;100.00;101095.45;1991232;71;32838;-74
2022/06/30 01:29:42;;;;;;;51.80;47.63;;;;;;;15.23;100.00;101093.36;2010295;71;32778;-74
2022/06/30 01:35:27;;;;;;;49.43;45.63;;;;;;;15.44;100.00;101086.20;2004243;71;32875;-74
2022/06/30 01:41:12;;;;;;;47.43;43.47;;;;;;;15.27;100.00;101099.43;2004369;71;32856;-75
2022/06/30 01:46:57;;;;;;;47.33;43.27;;;;;;;15.34;100.00;101086.41;2016875;71;32966;-73
2022/06/30 01:52:41;;;;;;;47.97;43.97;;;;;;;15.20;100.00;101105.16;2011899;71;32786;-74
2022/06/30 01:58:26;;;;;;;49.97;45.90;;;;;;;15.36;100.00;101102.33;2014941;71;32915;-73
2022/06/30 02:10:15;;;;;;;48.00;44.30;;;;;;;15.39;100.00;101116.53;2006846;70;32846;-75
2022/06/30 02:15:59;;;;;;;49.77;45.70;;;;;;;15.38;100.00;101125.23;2027184;70;32882;-73
2022/06/30 02:21:44;;;;;;;49.33;45.27;;;;;;;15.31;100.00;101124.83;2015117;71;33028;-74
2022/06/30 02:27:28;;;;;;;47.87;44.03;;;;;;;15.32;100.00;101122.26;2009072;71;32885;-73
2022/06/30 02:33:13;;;;;;;49.20;45.53;;;;;;;15.32;100.00;101133.45;2012138;71;32815;-74
2022/06/30 02:38:57;;;;;;;50.13;46.20;;;;;;;15.29;100.00;101121.48;2005776;71;32883;-74
2022/06/30 02:44:41;;;;;;;50.93;47.03;;;;;;;15.20;100.00;101112.15;2012218;71;33380;-74
2022/06/30 02:50:25;;;;;;;51.50;47.60;;;;;;;15.25;100.00;101114.29;2009641;70;32891;-73
2022/06/30 02:56:11;;;;;;;53.03;48.93;;;;;;;15.22;100.00;101114.92;2001130;71;32853;-75
2022/06/30 03:01:56;;;;;;;53.20;49.20;;;;;;;15.32;100.00;101127.29;1997338;71;32755;-73
2022/06/30 03:07:40;;;;;;;53.00;49.10;;;;;;;15.29;100.00;101123.72;2013235;71;32912;-73
2022/06/30 03:13:25;;;;;;;50.17;46.63;;;;;;;15.13;100.00;101125.73;2005083;70;33301;-73
2022/06/30 03:19:09;;;;;;;52.50;48.80;;;;;;;15.31;100.00;101140.22;2007379;71;32882;-74
2022/06/30 03:24:54;;;;;;;55.23;51.43;;;;;;;15.23;100.00;101127.75;2005826;71;32839;-74
2022/06/30 03:30:38;;;;;;;56.93;52.53;;;;;;;15.15;100.00;101124.27;2017116;71;32881;-73
2022/06/30 03:36:23;;;;;;;58.77;54.47;;;;;;;15.15;100.00;101126.23;1997308;71;32878;-74
2022/06/30 03:42:08;;;;;;;57.80;53.60;;;;;;;15.13;100.00;101118.73;2016846;71;32941;-73
2022/06/30 03:47:53;;;;;;;58.37;53.70;;;;;;;15.09;100.00;101125.52;2016874;71;33016;-73
2022/06/30 03:53:37;;;;;;;57.13;52.87;;;;;;;15.06;100.00;101130.31;1998625;71;32761;-73
2022/06/30 03:59:21;;;;;;;58.30;54.20;;;;;;;15.09;100.00;101126.09;2006005;71;33355;-69
2022/06/30 04:05:08;;;;;;;57.47;53.20;;;;;;;15.15;100.00;101127.63;2016708;71;32808;-69
2022/06/30 04:10:55;;;;;;;56.83;52.67;;;;;;;15.03;100.00;101136.53;1997181;71;32791;-69
2022/06/30 04:16:39;;;;;;;57.27;53.17;;;;;;;15.09;100.00;101143.71;2008172;71;32849;-70
2022/06/30 04:22:24;;;;;;;58.07;53.77;;;;;;;15.17;100.00;101141.59;2011039;71;33092;-69
2022/06/30 04:28:08;;;;;;;57.53;53.27;;;;;;;14.99;100.00;101132.70;2009173;71;32837;-71
2022/06/30 04:33:52;;;;;;;58.30;54.17;;;;;;;15.03;100.00;101119.75;2005151;71;34863;-69
2022/06/30 04:39:36;;;;;;;57.17;52.80;;;;;;;14.98;100.00;101134.66;2007844;71;32880;-69
2022/06/30 04:45:21;;;;;;;56.67;52.77;;;;;;;15.00;100.00;101134.36;2009782;71;33272;-69
2022/06/30 04:51:07;;;;;;;59.07;54.80;;;;;;;14.87;100.00;101138.80;2013346;71;32887;-70
2022/06/30 04:56:54;;;;;;;60.10;55.60;;;;;;;14.92;100.00;101147.66;2010282;71;33232;-71
2022/06/30 05:02:39;;;;;;;56.57;52.40;;;;;;;14.91;100.00;101144.59;2013552;71;33290;-71
2022/06/30 05:08:29;;;;;;;59.07;54.80;;;;;;;14.74;100.00;101147.97;1965125;71;33367;-71
2022/06/30 05:14:13;;;;;;;57.37;53.13;;;;;;;14.93;100.00;101138.14;2014974;71;33321;-70
2022/06/30 05:19:57;;;;;;;58.63;54.23;;;;;;;14.81;100.00;101127.42;2000776;71;32764;-69
2022/06/30 05:31:43;;;;;;;56.37;52.10;;;;;;;14.64;100.00;101137.52;2004912;71;32818;-70
2022/06/30 05:37:27;;;;;;;57.47;53.27;;;;;;;14.55;100.00;101127.59;2015491;71;32965;-69
2022/06/30 05:43:14;;;;;;;58.23;53.60;;;;;;;14.56;100.00;101158.05;2007088;71;32802;-71
2022/06/30 05:49:09;;;;;;;59.70;55.10;;;;;;;14.74;100.00;101171.73;1924288;73;33112;-70
2022/06/30 05:54:56;;;;;;;58.50;54.20;;;;;;;14.86;100.00;101171.25;2014864;71;32904;-70
2022/06/30 06:00:39;;;;;;;56.43;52.00;;;;;;;14.80;100.00;101164.10;2000093;71;33352;-70
2022/06/30 06:06:24;;;;;;;58.20;53.57;;;;;;;14.98;100.00;101159.84;2007685;71;32852;-69
2022/06/30 06:12:12;;;;;;;60.33;55.83;;;;;;;15.08;100.00;101155.20;2012886;71;33279;-70
2022/06/30 06:17:57;;;;;;;60.40;55.63;;;;;;;15.16;100.00;101160.91;2005270;70;32874;-72
2022/06/30 06:23:41;;;;;;;58.30;53.90;;;;;;;15.03;100.00;101147.73;1995759;71;33326;-72
2022/06/30 06:29:26;;;;;;;51.70;47.97;;;;;;;14.90;100.00;101154.95;2006501;71;32828;-72
2022/06/30 06:35:11;;;;;;;54.90;50.53;;;;;;;15.00;100.00;101164.58;2000972;71;32843;-72
2022/06/30 06:40:55;;;;;;;55.73;51.40;;;;;;;15.24;100.00;101169.99;2010301;71;32838;-71
2022/06/30 06:46:39;;;;;;;54.33;50.23;;;;;;;15.29;100.00;101166.27;1991796;71;32767;-71
2022/06/30 06:52:24;;;;;;;51.80;47.83;;;;;;;15.40;100.00;101163.55;2002741;71;32865;-70
2022/06/30 06:58:10;;;;;;;55.00;50.53;;;;;;;15.66;100.00;101165.30;2009789;71;33409;-70
2022/06/30 07:03:54;;;;;;;55.10;50.90;;;;;;;15.80;100.00;101161.90;2016706;71;32834;-70
2022/06/30 07:09:39;;;;;;;56.97;53.07;;;;;;;16.00;100.00;101155.87;2015510;70;32830;-69
2022/06/30 07:15:24;;;;;;;57.87;53.63;;;;;;;15.80;100.00;101157.70;2013610;71;32878;-71
2022/06/30 07:21:08;;;;;;;53.10;48.77;;;;;;;16.07;100.00;101154.88;2011466;71;33353;-67
2022/06/30 07:26:52;;;;;;;52.27;48.50;;;;;;;16.20;100.00;101148.41;2015258;71;33439;-66
2022/06/30 07:32:37;;;;;;;53.90;50.10;;;;;;;16.44;100.00;101149.50;2005835;71;32914;-69
2022/06/30 07:38:23;;;;;;;52.80;49.20;;;;;;;16.83;100.00;101158.66;2013432;71;33365;-70
2022/06/30 07:44:07;;;;;;;49.77;46.47;;;;;;;16.62;100.00;101158.35;2016990;71;33366;-69
2022/06/30 07:49:51;;;;;;;48.90;45.20;;;;;;;16.65;100.00;101164.72;2009937;71;33342;-69
2022/06/30 07:55:39;;;;;;;49.83;46.33;;;;;;;16.61;100.00;101165.10;1996705;71;30904;-69
2022/06/30 08:01:23;;;;;;;48.97;45.50;;;;;;;16.63;100.00;101178.25;2008480;71;33340;-70
2022/06/30 08:07:07;;;;;;;48.50;45.20;;;;;;;16.82;100.00;101165.41;2006596;71;32833;-68
2022/06/30 08:12:52;;;;;;;45.50;42.30;;;;;;;17.54;100.00;101170.80;1998945;70;32928;-69
2022/06/30 08:18:36;;;;;;;45.20;41.80;;;;;;;18.30;100.00;101168.53;2017053;71;30978;-69
2022/06/30 08:24:21;;;;;;;44.70;41.63;;;;;;;18.14;100.00;101172.41;2004145;71;33426;-69
2022/06/30 08:30:08;;;;;;;43.47;40.60;;;;;;;18.48;100.00;101178.05;2016942;71;30953;-70
2022/06/30 08:35:52;;;;;;;41.00;38.30;;;;;;;18.88;100.00;101159.60;2006205;71;31418;-69
2022/06/30 08:47:39;;;;;;;37.70;35.20;;;;;;;18.82;100.00;101150.52;2015112;71;30935;-69
2022/06/30 08:53:27;;;;;;;34.07;32.00;;;;;;;18.51;100.00;101153.49;2001150;71;31335;-70
2022/06/30 08:59:13;;;;;;;35.03;32.83;;;;;;;18.85;100.00;101155.48;2029460;70;30932;-71
2022/06/30 09:04:57;;;;;;;31.13;29.13;;;;;;;19.17;100.00;101151.25;1999214;71;30882;-70
2022/06/30 09:10:50;;;;;;;27.70;26.00;;;;;;;19.51;100.00;101151.77;2015362;71;30920;-69
2022/06/30 09:16:34;;;;;;;26.87;25.13;;;;;;;19.13;100.00;101157.89;2004129;71;31018;-70
2022/06/30 09:22:19;;;;;;;27.70;26.13;;;;;;;19.25;100.00;101158.05;2008643;71;31019;-69
2022/06/30 09:28:09;;;;;;;26.63;25.10;;;;;;;19.45;100.00;101165.20;2013750;71;30837;-69
2022/06/30 09:33:53;;;;;;;24.77;23.13;;;;;;;19.19;100.00;101169.23;1991896;71;30915;-68
2022/06/30 09:39:42;;;;;;;24.27;22.90;;;;;;;19.34;100.00;101176.55;2006652;71;33318;-69
2022/06/30 09:45:37;;;;;;;22.90;21.73;;;;;;;19.61;100.00;101168.86;2017013;71;30936;-69
2022/06/30 09:51:23;;;;;;;23.20;21.70;;;;;;;19.32;100.00;101161.16;2012090;71;30958;-68
2022/06/30 09:57:27;;;;;;;23.20;21.73;;;;;;;19.36;100.00;101153.11;2010164;71;30902;-69
2022/06/30 10:03:19;;;;;;;22.20;20.93;;;;;;;19.58;100.00;101145.02;2017080;71;33322;-69
2022/06/30 10:09:07;;;;;;;19.73;18.50;;;;;;;19.64;100.00;101147.07;1959798;72;30953;-69
2022/06/30 10:14:56;;;;;;;19.80;18.70;;;;;;;19.21;100.00;101136.73;2007917;71;31045;-71
2022/06/30 10:20:45;;;;;;;18.37;17.33;;;;;;;19.41;100.00;101134.62;2017549;71;30981;-69
2022/06/30 10:32:43;;;;;;;18.47;17.30;;;;;;;19.53;100.00;101150.25;2016996;71;30994;-68
2022/06/30 10:35:18;;;;;;;18.50;17.50;;;;;;;19.60;100.00;101147.47;1979710;72;26737;-68
2022/06/30 10:37:53;;;;;;;19.30;18.07;;;;;;;19.65;100.00;101148.12;1966740;72;24171;-68
2022/06/30 10:40:29;;;;;;;17.67;16.77;;;;;;;19.74;100.00;101144.68;1973402;72;24240;-69
2022/06/30 10:46:13;;;;;;;19.37;17.90;;;;;;;19.72;100.00;101142.80;2006572;71;30965;-69
2022/06/30 10:52:25;;;;;;;17.73;16.73;;;;;;;19.91;100.00;101132.47;2001211;71;31489;-69
2022/06/30 10:58:22;;;;;;;16.43;15.53;;;;;;;19.58;100.00;101139.95;2009851;71;33355;-69
2022/06/30 11:04:15;;;;;;;16.20;15.30;;;;;;;19.83;100.00;101141.81;2011998;71;30855;-69
2022/06/30 11:10:30;;;;;;;14.50;13.67;;;;;;;19.93;100.00;101137.20;2002750;71;31021;-70
2022/06/30 11:16:40;;;;;;;14.30;13.50;;;;;;;19.96;100.00;101142.14;2007645;71;30890;-69
2022/06/30 11:22:35;;;;;;;12.40;11.70;;;;;;;20.28;100.00;101130.12;2013533;71;30975;-70
2022/06/30 11:28:23;;;;;;;12.27;11.47;;;;;;;20.29;100.00;101119.67;2008448;71;31380;-68
2022/06/30 11:34:09;;;;;;;12.73;12.03;;;;;;;20.63;100.00;101099.64;2000407;71;30930;-68
2022/06/30 11:39:59;;;;;;;11.10;10.47;;;;;;;20.75;100.00;101101.09;2002838;71;30885;-69
2022/06/30 11:45:44;;;;;;;10.27;9.77;;;;;;;20.84;100.00;101111.72;2015602;71;30889;-67
2022/06/30 11:51:29;;;;;;;10.03;9.47;;;;;;;20.78;100.00;101103.24;2008565;71;33326;-68
2022/06/30 11:57:14;;;;;;;11.60;10.80;;;;;;;20.49;100.00;101111.00;2001008;71;30852;-67
2022/06/30 12:03:03;;;;;;;10.97;10.20;;;;;;;20.72;100.00;101120.73;2018858;71;33404;-67
2022/06/30 12:08:55;;;;;;;12.03;10.73;;;;;;;20.51;100.00;101124.17;1980270;72;31182;-67
2022/06/30 12:14:46;;;;;;;15.13;13.77;;;;;;;19.35;100.00;101145.81;2006323;70;30909;-67
2022/06/30 12:20:34;;;;;;;34.50;32.40;;;;;;;18.31;100.00;101172.44;2016902;71;31410;-68
2022/06/30 12:26:19;;;;;;;50.83;47.43;;;;;;;17.71;100.00;101170.89;2006770;71;33357;-67
2022/06/30 12:32:10;;;;;;;55.67;50.73;;;;;;;17.55;100.00;101179.45;2009859;71;30948;-68
2022/06/30 12:38:13;;;;;;;56.17;51.67;;;;;;;17.96;100.00;101175.77;1998846;71;30983;-69
2022/06/30 12:43:57;;;;;;;53.43;49.63;;;;;;;18.19;100.00;101194.16;2008770;71;30901;-67
2022/06/30 12:49:43;;;;;;;51.67;48.20;;;;;;;17.86;100.00;101198.54;2015460;71;30914;-70
2022/06/30 12:55:33;;;;;;;54.40;50.80;;;;;;;17.70;100.00;101198.73;2008344;71;30831;-67
2022/06/30 13:01:20;;;;;;;54.73;51.40;;;;;;;16.65;100.00;101211.00;2011977;71;30994;-67
2022/06/30 13:07:10;;;;;;;57.27;51.93;;;;;;;16.08;100.00;101204.17;2008328;71;30852;-68
2022/06/30 13:12:54;;;;;;;53.50;49.60;;;;;;;16.19;100.00;101211.20;1991817;71;30892;-69
2022/06/30 13:18:38;;;;;;;52.73;48.73;;;;;;;16.29;100.00;101195.57;2018626;71;33027;-68
2022/06/30 13:24:23;;;;;;;51.87;48.17;;;;;;;16.77;100.00;101189.42;2004286;71;33325;-68
2022/06/30 13:30:11;;;;;;;52.30;48.77;;;;;;;16.76;100.00;101169.52;1999116;71;30863;-68
2022/06/30 13:35:57;;;;;;;53.97;49.90;;;;;;;17.14;100.00;101185.37;2015302;71;31005;-68
2022/06/30 13:41:43;;;;;;;52.13;48.23;;;;;;;17.72;100.00;101195.01;2008033;71;30882;-68
2022/06/30 13:47:30;;;;;;;53.10;49.33;;;;;;;17.45;100.00;101179.75;1997423;71;31350;-68
2022/06/30 13:53:16;;;;;;;58.37;52.63;;;;;;;17.10;100.00;101162.73;2017123;71;31004;-68
2022/06/30 13:59:03;;;;;;;49.63;46.00;;;;;;;17.69;100.00;101165.59;2011485;71;30910;-68
2022/06/30 14:04:49;;;;;;;42.60;40.00;;;;;;;18.55;100.00;101152.28;2011992;71;30839;-68
2022/06/30 14:10:36;;;;;;;42.83;40.23;;;;;;;18.80;100.00;101137.92;2002416;71;30984;-68
2022/06/30 14:16:26;;;;;;;44.43;41.73;;;;;;;18.31;100.00;101132.23;1992110;71;33306;-68
2022/06/30 14:22:13;;;;;;;45.27;42.37;;;;;;;18.64;100.00;101132.00;2001968;71;30874;-68
2022/06/30 14:28:00;;;;;;;40.40;37.90;;;;;;;18.85;100.00;101128.73;2001012;71;30964;-68
2022/06/30 14:33:44;;;;;;;38.43;36.23;;;;;;;19.53;100.00;101124.89;1995184;71;32883;-68
2022/06/30 14:39:29;;;;;;;36.23;34.20;;;;;;;19.64;100.00;101116.06;2013349;71;30871;-69
2022/06/30 14:45:15;;;;;;;31.53;29.53;;;;;;;19.91;100.00;101103.70;2008466;71;31359;-69
2022/06/30 14:50:59;;;;;;;28.70;27.10;;;;;;;19.96;100.00;101102.09;2002699;71;31385;-69
2022/06/30 14:56:43;;;;;;;31.63;29.83;;;;;;;20.48;100.00;101096.65;2008709;70;30806;-69
2022/06/30 15:02:29;;;;;;;26.80;25.20;;;;;;;20.75;100.00;101094.65;2011327;71;30990;-69
2022/06/30 15:08:15;;;;;;;27.17;25.67;;;;;;;20.79;100.00;101093.58;2000776;71;31390;-66
2022/06/30 15:13:59;;;;;;;23.13;21.73;;;;;;;20.65;100.00;101097.31;2001572;71;30929;-68
2022/06/30 15:19:43;;;;;;;27.50;26.00;;;;;;;20.40;100.00;101101.20;2013604;71;31434;-69
2022/06/30 15:25:28;;;;;;;20.80;19.50;;;;;;;20.24;100.00;101108.00;2008230;71;30844;-69
2022/06/30 15:31:12;;;;;;;19.07;17.97;;;;;;;20.11;100.00;101122.41;2008419;71;30841;-70
2022/06/30 15:36:58;;;;;;;14.17;13.37;;;;;;;20.15;100.00;101096.57;1995258;71;31031;-72
2022/06/30 15:42:42;;;;;;;11.53;10.93;;;;;;;20.16;100.00;101105.25;2008075;71;30889;-73
2022/06/30 15:48:27;;;;;;;11.23;10.73;;;;;;;20.36;100.00;101119.41;2009622;71;31005;-73
2022/06/30 15:54:11;;;;;;;10.37;9.87;;;;;;;20.23;100.00;101116.83;2010361;71;30916;-72
2022/06/30 15:59:55;;;;;;;10.53;10.13;;;;;;;20.01;100.00;101116.58;2012027;71;30842;-71
2022/06/30 16:05:41;;;;;;;10.53;9.90;;;;;;;20.09;100.00;101110.05;2017287;71;30940;-69
2022/06/30 16:11:25;;;;;;;10.20;9.70;;;;;;;19.95;100.00;101120.75;2005007;71;31365;-70
2022/06/30 16:17:11;;;;;;;10.27;9.77;;;;;;;20.06;100.00;101116.38;2012104;71;31407;-68
2022/06/30 16:22:55;;;;;;;10.60;10.20;;;;;;;19.94;100.00;101134.02;2018809;71;31363;-69
2022/06/30 16:28:40;;;;;;;10.70;10.30;;;;;;;19.92;100.00;101136.37;2006051;71;30994;-70
2022/06/30 16:34:24;;;;;;;9.70;9.30;;;;;;;19.95;100.00;101134.27;2007694;71;30920;-71
2022/06/30 16:40:11;;;;;;;10.07;9.60;;;;;;;19.75;100.00;101145.50;2001076;71;30887;-69
2022/06/30 16:45:56;;;;;;;11.00;10.20;;;;;;;19.53;100.00;101150.83;2004769;71;31453;-69
2022/06/30 16:51:41;;;;;;;14.17;13.67;;;;;;;19.02;100.00;101167.28;2004675;71;30885;-71
2022/06/30 16:57:28;;;;;;;18.90;18.10;;;;;;;18.35;100.00;101168.38;2017132;71;31034;-70
2022/06/30 17:03:13;;;;;;;21.17;20.07;;;;;;;18.34;100.00;101183.59;1978688;70;31182;-77
2022/06/30 17:08:58;;;;;;;24.50;23.30;;;;;;;17.92;100.00;101187.98;1970213;71;31016;-77
2022/06/30 17:14:43;;;;;;;18.73;17.93;;;;;;;18.71;100.00;101187.19;2015163;71;30929;-78
2022/06/30 17:20:27;;;;;;;18.87;18.07;;;;;;;18.55;100.00;101202.34;2014887;71;30944;-77
2022/06/30 17:26:11;;;;;;;18.47;17.47;;;;;;;18.00;100.00;101195.03;2009583;71;31054;-75
2022/06/30 17:31:57;;;;;;;17.10;16.33;;;;;;;18.09;100.00;101204.32;2013576;71;30849;-75
2022/06/30 17:37:41;;;;;;;16.67;16.03;;;;;;;18.18;100.00;101208.55;1994663;71;32983;-72
2022/06/30 17:43:27;;;;;;;19.00;18.20;;;;;;;17.94;100.00;101208.98;2009772;71;31393;-73
2022/06/30 17:49:12;;;;;;;19.97;19.07;;;;;;;17.89;100.00;101209.12;2014773;71;30890;-74
2022/06/30 17:54:57;;;;;;;21.17;20.27;;;;;;;17.67;100.00;101223.27;2014857;71;32876;-76
2022/06/30 18:00:42;;;;;;;23.07;21.97;;;;;;;17.33;100.00;101217.45;2008030;71;30988;-75
2022/06/30 18:12:32;;;;;;;25.87;24.60;;;;;;;17.56;100.00;101220.44;2000614;71;32929;-74
2022/06/30 18:18:16;;;;;;;27.30;26.00;;;;;;;17.37;100.00;101204.41;2000747;71;33268;-71
2022/06/30 18:24:01;;;;;;;23.77;22.77;;;;;;;17.42;100.00;101202.84;2018596;71;33380;-72
2022/06/30 18:29:46;;;;;;;27.17;25.97;;;;;;;17.39;100.00;101204.91;2011692;71;32836;-73
2022/06/30 18:35:30;;;;;;;21.17;20.23;;;;;;;17.52;100.00;101203.98;2015010;71;33391;-74
2022/06/30 18:41:27;;;;;;;26.27;25.17;;;;;;;17.37;100.00;101209.43;2009925;71;32815;-73
2022/06/30 18:47:16;;;;;;;21.77;20.87;;;;;;;17.33;100.00;101202.80;2009588;71;30897;-73
2022/06/30 18:53:02;;;;;;;22.40;21.50;;;;;;;17.30;100.00;101209.07;2003967;71;30902;-73
2022/06/30 18:58:46;;;;;;;29.80;28.30;;;;;;;17.50;100.00;101213.33;2013098;71;30894;-73
2022/06/30 19:04:31;;;;;;;22.07;21.17;;;;;;;17.30;100.00;101228.16;2013046;71;31399;-73
2022/06/30 19:10:16;;;;;;;14.03;13.33;;;;;;;17.74;100.00;101234.29;2016553;71;33020;-73
2022/06/30 19:16:01;;;;;;;12.60;12.10;;;;;;;17.75;100.00;101240.74;2013105;71;30911;-73
2022/06/30 19:21:45;;;;;;;12.90;12.40;;;;;;;17.73;100.00;101243.86;2002582;71;30825;-72
2022/06/30 19:27:30;;;;;;;13.43;12.83;;;;;;;17.78;100.00;101250.48;2006157;71;30907;-71
2022/06/30 19:33:15;;;;;;;13.80;13.20;;;;;;;17.68;100.00;101262.84;2015149;71;30897;-67
2022/06/30 19:38:59;;;;;;;14.00;13.40;;;;;;;17.50;100.00;101270.30;2016756;71;33454;-67
2022/06/30 19:44:43;;;;;;;18.07;17.27;;;;;;;17.29;100.00;101277.03;1995093;71;32864;-67
2022/06/30 19:50:28;;;;;;;23.43;22.47;;;;;;;17.05;100.00;101275.70;2009657;71;33351;-67
2022/06/30 19:56:14;;;;;;;31.47;29.97;;;;;;;16.96;100.00;101286.02;2010001;71;33272;-66
2022/06/30 20:02:00;;;;;;;34.40;32.77;;;;;;;16.75;100.00;101282.88;2004498;71;31341;-66
2022/06/30 20:13:49;;;;;;;40.57;38.20;;;;;;;16.60;100.00;101298.66;2002486;71;33297;-67
2022/06/30 20:19:33;;;;;;;42.50;40.00;;;;;;;16.39;100.00;101302.43;1996991;71;30845;-67
2022/06/30 20:25:21;;;;;;;45.63;42.93;;;;;;;16.31;100.00;101302.60;2002115;71;30892;-67
2022/06/30 20:31:10;;;;;;;49.03;46.13;;;;;;;16.20;100.00;101308.17;2014898;71;32837;-68
2022/06/30 20:36:55;;;;;;;52.53;49.43;;;;;;;16.05;100.00;101326.68;2013111;71;33035;-69
2022/06/30 20:42:40;;;;;;;54.27;50.97;;;;;;;15.94;100.00;101344.28;2002302;71;32782;-68
2022/06/30 20:54:29;;;;;;;56.60;52.70;;;;;;;15.82;100.00;101357.12;2003713;71;33340;-70
2022/06/30 21:00:15;;;;;;;54.23;50.63;;;;;;;15.59;100.00;101363.13;2015114;71;33264;-71
2022/06/30 21:06:00;;;;;;;52.93;49.53;;;;;;;15.77;100.00;101364.21;2014994;71;33498;-70
2022/06/30 21:11:44;;;;;;;52.07;48.83;;;;;;;15.56;100.00;101369.91;2016629;71;33379;-71
2022/06/30 21:17:29;;;;;;;50.40;47.23;;;;;;;15.58;100.00;101375.45;2018536;71;33529;-69
2022/06/30 21:23:13;;;;;;;51.57;48.30;;;;;;;15.40;100.00;101375.71;2010016;70;33342;-69
2022/06/30 21:28:58;;;;;;;52.23;49.10;;;;;;;15.31;100.00;101384.56;1998781;71;33357;-70
2022/06/30 21:34:42;;;;;;;51.50;48.30;;;;;;;15.34;100.00;101385.34;2018457;71;33316;-71
2022/06/30 21:40:26;;;;;;;52.07;48.60;;;;;;;15.34;100.00;101385.34;1998799;71;32801;-71
2022/06/30 21:46:10;;;;;;;52.57;49.27;;;;;;;14.98;100.00;101388.41;2016798;71;33380;-73
2022/06/30 21:51:55;;;;;;;53.43;50.03;;;;;;;14.92;100.00;101395.22;1998304;71;32886;-72
2022/06/30 21:57:40;;;;;;;53.57;50.37;;;;;;;14.84;100.00;101400.09;2008023;71;32810;-72
2022/06/30 22:03:29;;;;;;;53.17;49.77;;;;;;;14.94;100.00;101404.13;2003973;71;32821;-72
2022/06/30 22:09:14;;;;;;;52.80;49.20;;;;;;;14.91;100.00;101402.78;1991075;71;32855;-72
2022/06/30 22:15:01;;;;;;;52.53;49.33;;;;;;;14.87;100.00;101402.28;2013366;71;33410;-73
2022/06/30 22:20:45;;;;;;;54.70;51.27;;;;;;;14.62;100.00;101399.26;2014962;71;33427;-73
2022/06/30 22:26:29;;;;;;;53.73;50.50;;;;;;;14.57;100.00;101400.71;2000607;71;33221;-73
2022/06/30 22:32:13;;;;;;;53.37;49.97;;;;;;;14.32;100.00;101403.22;2003816;71;32890;-73
2022/06/30 22:37:57;;;;;;;55.10;51.70;;;;;;;14.46;100.00;101403.37;2013216;71;32844;-72
2022/06/30 22:43:42;;;;;;;53.07;49.77;;;;;;;14.22;100.00;101396.34;2014854;71;32886;-73
2022/06/30 22:49:27;;;;;;;53.00;49.57;;;;;;;14.10;100.00;101407.92;2014739;71;32836;-73
2022/06/30 22:55:11;;;;;;;53.57;50.30;;;;;;;14.31;100.00;101406.30;2012830;71;32925;-72
2022/06/30 23:00:55;;;;;;;53.47;50.10;;;;;;;14.28;100.00;101406.91;2002428;71;33247;-73
2022/06/30 23:06:40;;;;;;;52.03;48.83;;;;;;;14.21;100.00;101401.65;1994543;71;32809;-71
2022/06/30 23:12:25;;;;;;;55.07;51.47;;;;;;;14.26;100.00;101410.54;2013645;71;32748;-73
2022/06/30 23:18:09;;;;;;;54.80;51.47;;;;;;;14.20;100.00;101409.78;2003533;70;33341;-73
2022/06/30 23:23:53;;;;;;;53.07;49.70;;;;;;;14.20;100.00;101412.58;2013472;71;32843;-72
2022/06/30 23:29:38;;;;;;;54.17;50.80;;;;;;;14.34;100.00;101410.73;1998597;71;32879;-72
2022/06/30 23:35:23;;;;;;;54.27;50.77;;;;;;;14.13;100.00;101408.72;2014561;71;32819;-72
2022/06/30 23:41:07;;;;;;;55.03;51.53;;;;;;;13.91;100.00;101411.17;1998509;71;33249;-72
2022/06/30 23:46:52;;;;;;;52.93;49.43;;;;;;;13.81;100.00;101415.48;2016462;71;32827;-73
2022/06/30 23:52:37;;;;;;;54.27;50.70;;;;;;;13.88;100.00;101419.31;2013169;71;33396;-73
2022/06/30 23:58:22;;;;;;;53.50;50.03;;;;;;;13.84;100.00;101418.23;1995172;71;33231;-73
